VDE weather

Hierro Airport
El Hierro Island, Canary Islands, Spain

Public forecast

Using degrees Celsius for public forecast. Weather courtesy of forecast.io.

METAR (pilot weather report)

Retrieved 2019/05/22 14:30 UTC (29 minutes ago):

GCHI 221430Z 01013G23KT 320V050 9999 FEW030 24/17 Q1019

TAF (pilot weather forecast)

Retrieved 2019/05/22 15:00 UTC (0 seconds ago):

TAF GCHI 221400Z 2215/2315 01013KT 9999 FEW030 TX24/2314Z TN20/2306Z